sensor_id;sensor_type;location;lat;lon;timestamp;temperature;humidity
19930;DHT22;10127;47.780;9.606;2023-04-25T00:02:12;10.50;99.90
19930;DHT22;10127;47.780;9.606;2023-04-25T00:04:38;10.50;99.90
19930;DHT22;10127;47.780;9.606;2023-04-25T00:07:04;10.50;99.90
19930;DHT22;10127;47.780;9.606;2023-04-25T00:09:30;10.50;99.90
19930;DHT22;10127;47.780;9.606;2023-04-25T00:11:55;10.50;99.90
19930;DHT22;10127;47.780;9.606;2023-04-25T00:14:21;10.40;99.90
19930;DHT22;10127;47.780;9.606;2023-04-25T00:16:48;10.40;99.90
19930;DHT22;10127;47.780;9.606;2023-04-25T00:19:13;10.40;99.90
19930;DHT22;10127;47.780;9.606;2023-04-25T00:21:39;10.30;99.90
19930;DHT22;10127;47.780;9.606;2023-04-25T00:24:08;10.30;99.90
19930;DHT22;10127;47.780;9.606;2023-04-25T00:26:34;10.30;99.90
19930;DHT22;10127;47.780;9.606;2023-04-25T00:29:00;10.30;99.90
19930;DHT22;10127;47.780;9.606;2023-04-25T00:31:26;10.30;99.90
19930;DHT22;10127;47.780;9.606;2023-04-25T00:33:51;10.20;99.90
19930;DHT22;10127;47.780;9.606;2023-04-25T00:36:18;10.20;99.90
19930;DHT22;10127;47.780;9.606;2023-04-25T00:38:44;10.30;99.90
19930;DHT22;10127;47.780;9.606;2023-04-25T00:41:09;10.30;99.90
19930;DHT22;10127;47.780;9.606;2023-04-25T00:43:36;10.30;99.90
19930;DHT22;10127;47.780;9.606;2023-04-25T00:46:02;10.30;99.90
19930;DHT22;10127;47.780;9.606;2023-04-25T00:48:28;10.30;99.90
19930;DHT22;10127;47.780;9.606;2023-04-25T00:50:55;10.20;99.90
19930;DHT22;10127;47.780;9.606;2023-04-25T00:53:22;10.30;99.90
19930;DHT22;10127;47.780;9.606;2023-04-25T00:55:49;10.20;99.90
19930;DHT22;10127;47.780;9.606;2023-04-25T00:58:17;10.20;99.90
19930;DHT22;10127;47.780;9.606;2023-04-25T01:00:43;10.20;99.90
19930;DHT22;10127;47.780;9.606;2023-04-25T01:03:09;10.20;99.90
19930;DHT22;10127;47.780;9.606;2023-04-25T01:05:35;10.10;99.90
19930;DHT22;10127;47.780;9.606;2023-04-25T01:08:01;10.20;99.90
19930;DHT22;10127;47.780;9.606;2023-04-25T01:10:26;10.10;99.90
19930;DHT22;10127;47.780;9.606;2023-04-25T01:12:52;10.10;99.90
19930;DHT22;10127;47.780;9.606;2023-04-25T01:15:18;10.10;99.90
19930;DHT22;10127;47.780;9.606;2023-04-25T01:17:44;10.10;99.90
19930;DHT22;10127;47.780;9.606;2023-04-25T01:20:11;10.10;99.90
19930;DHT22;10127;47.780;9.606;2023-04-25T01:22:37;10.10;99.90
19930;DHT22;10127;47.780;9.606;2023-04-25T01:25:03;10.20;99.90
19930;DHT22;10127;47.780;9.606;2023-04-25T01:27:30;10.20;99.90
19930;DHT22;10127;47.780;9.606;2023-04-25T01:29:56;10.20;99.90
19930;DHT22;10127;47.780;9.606;2023-04-25T01:32:23;10.30;99.90
19930;DHT22;10127;47.780;9.606;2023-04-25T01:34:49;10.30;99.90
19930;DHT22;10127;47.780;9.606;2023-04-25T01:37:15;10.30;99.90
19930;DHT22;10127;47.780;9.606;2023-04-25T01:39:41;10.30;99.90
19930;DHT22;10127;47.780;9.606;2023-04-25T01:42:07;10.30;99.90
19930;DHT22;10127;47.780;9.606;2023-04-25T01:44:32;10.30;99.90
19930;DHT22;10127;47.780;9.606;2023-04-25T01:46:58;10.10;99.90
19930;DHT22;10127;47.780;9.606;2023-04-25T01:49:23;10.00;99.90
19930;DHT22;10127;47.780;9.606;2023-04-25T01:51:49;10.00;99.90
19930;DHT22;10127;47.780;9.606;2023-04-25T01:54:15;10.00;99.90
19930;DHT22;10127;47.780;9.606;2023-04-25T01:56:40;10.00;99.90
19930;DHT22;10127;47.780;9.606;2023-04-25T01:59:06;10.10;99.90
19930;DHT22;10127;47.780;9.606;2023-04-25T02:01:32;10.20;99.90
19930;DHT22;10127;47.780;9.606;2023-04-25T02:03:58;10.00;99.90
19930;DHT22;10127;47.780;9.606;2023-04-25T02:06:23;9.70;99.90
19930;DHT22;10127;47.780;9.606;2023-04-25T02:08:49;9.60;99.90
19930;DHT22;10127;47.780;9.606;2023-04-25T02:11:14;9.50;99.90
19930;DHT22;10127;47.780;9.606;2023-04-25T02:13:40;9.50;99.90
19930;DHT22;10127;47.780;9.606;2023-04-25T02:16:06;9.50;99.90
19930;DHT22;10127;47.780;9.606;2023-04-25T02:18:31;9.50;99.90
19930;DHT22;10127;47.780;9.606;2023-04-25T02:20:59;9.10;99.90
19930;DHT22;10127;47.780;9.606;2023-04-25T02:23:24;8.80;99.90
19930;DHT22;10127;47.780;9.606;2023-04-25T02:25:50;8.60;99.90
19930;DHT22;10127;47.780;9.606;2023-04-25T02:28:17;8.60;99.90
19930;DHT22;10127;47.780;9.606;2023-04-25T02:30:42;8.80;99.90
19930;DHT22;10127;47.780;9.606;2023-04-25T02:33:08;8.80;99.90
19930;DHT22;10127;47.780;9.606;2023-04-25T02:35:33;8.90;99.90
19930;DHT22;10127;47.780;9.606;2023-04-25T02:37:59;8.90;99.90
19930;DHT22;10127;47.780;9.606;2023-04-25T02:40:25;8.90;99.90
19930;DHT22;10127;47.780;9.606;2023-04-25T02:42:50;8.80;99.90
19930;DHT22;10127;47.780;9.606;2023-04-25T02:45:16;8.70;99.90
19930;DHT22;10127;47.780;9.606;2023-04-25T02:47:42;8.70;99.90
19930;DHT22;10127;47.780;9.606;2023-04-25T03:10:45;8.10;99.90
19930;DHT22;10127;47.780;9.606;2023-04-25T03:13:11;8.00;99.90
19930;DHT22;10127;47.780;9.606;2023-04-25T03:15:37;8.00;99.90
19930;DHT22;10127;47.780;9.606;2023-04-25T03:18:03;8.00;99.90
19930;DHT22;10127;47.780;9.606;2023-04-25T03:20:29;8.00;99.90
19930;DHT22;10127;47.780;9.606;2023-04-25T03:22:54;8.10;99.90
19930;DHT22;10127;47.780;9.606;2023-04-25T03:25:20;8.20;99.90
19930;DHT22;10127;47.780;9.606;2023-04-25T03:27:46;8.20;99.90
19930;DHT22;10127;47.780;9.606;2023-04-25T03:30:11;8.20;99.90
19930;DHT22;10127;47.780;9.606;2023-04-25T03:32:37;8.10;99.90
19930;DHT22;10127;47.780;9.606;2023-04-25T03:35:03;8.20;99.90
19930;DHT22;10127;47.780;9.606;2023-04-25T03:37:29;8.20;99.90
19930;DHT22;10127;47.780;9.606;2023-04-25T03:39:54;8.30;99.90
19930;DHT22;10127;47.780;9.606;2023-04-25T03:42:20;8.30;99.90
19930;DHT22;10127;47.780;9.606;2023-04-25T03:44:48;8.30;99.90
19930;DHT22;10127;47.780;9.606;2023-04-25T03:47:14;8.30;99.90
19930;DHT22;10127;47.780;9.606;2023-04-25T03:49:39;8.30;99.90
19930;DHT22;10127;47.780;9.606;2023-04-25T03:52:05;8.30;99.90
19930;DHT22;10127;47.780;9.606;2023-04-25T03:54:30;8.20;99.90
19930;DHT22;10127;47.780;9.606;2023-04-25T03:56:56;8.30;99.90
19930;DHT22;10127;47.780;9.606;2023-04-25T03:59:21;8.20;99.90
19930;DHT22;10127;47.780;9.606;2023-04-25T04:01:47;8.20;99.90
19930;DHT22;10127;47.780;9.606;2023-04-25T04:04:13;8.10;99.90
19930;DHT22;10127;47.780;9.606;2023-04-25T04:06:39;8.10;99.90
19930;DHT22;10127;47.780;9.606;2023-04-25T04:09:05;8.10;99.90
19930;DHT22;10127;47.780;9.606;2023-04-25T04:11:34;8.00;99.90
19930;DHT22;10127;47.780;9.606;2023-04-25T04:14:02;8.10;99.90
19930;DHT22;10127;47.780;9.606;2023-04-25T04:16:27;8.00;99.90
19930;DHT22;10127;47.780;9.606;2023-04-25T04:18:53;7.90;99.90
19930;DHT22;10127;47.780;9.606;2023-04-25T04:21:18;7.90;99.90
19930;DHT22;10127;47.780;9.606;2023-04-25T04:23:44;7.90;99.90
19930;DHT22;10127;47.780;9.606;2023-04-25T04:26:10;8.00;99.90
19930;DHT22;10127;47.780;9.606;2023-04-25T04:28:36;8.10;99.90
19930;DHT22;10127;47.780;9.606;2023-04-25T04:31:03;8.10;99.90
19930;DHT22;10127;47.780;9.606;2023-04-25T04:33:29;8.20;99.90
19930;DHT22;10127;47.780;9.606;2023-04-25T04:35:56;8.10;99.90
19930;DHT22;10127;47.780;9.606;2023-04-25T04:38:22;8.10;99.90
19930;DHT22;10127;47.780;9.606;2023-04-25T04:40:47;8.10;99.90
19930;DHT22;10127;47.780;9.606;2023-04-25T04:43:13;8.20;99.90
19930;DHT22;10127;47.780;9.606;2023-04-25T04:45:40;8.40;99.90
19930;DHT22;10127;47.780;9.606;2023-04-25T04:48:06;8.50;99.90
19930;DHT22;10127;47.780;9.606;2023-04-25T04:50:32;8.60;99.90
19930;DHT22;10127;47.780;9.606;2023-04-25T04:53:01;8.50;99.90
19930;DHT22;10127;47.780;9.606;2023-04-25T04:55:27;8.40;99.90
19930;DHT22;10127;47.780;9.606;2023-04-25T04:57:52;8.20;99.90
19930;DHT22;10127;47.780;9.606;2023-04-25T05:00:18;8.20;99.90
19930;DHT22;10127;47.780;9.606;2023-04-25T05:02:43;8.20;99.90
19930;DHT22;10127;47.780;9.606;2023-04-25T05:05:09;8.30;99.90
19930;DHT22;10127;47.780;9.606;2023-04-25T05:07:35;8.30;99.90
19930;DHT22;10127;47.780;9.606;2023-04-25T05:10:01;8.50;99.90
19930;DHT22;10127;47.780;9.606;2023-04-25T05:12:26;8.70;99.90
19930;DHT22;10127;47.780;9.606;2023-04-25T05:14:52;9.00;99.90
19930;DHT22;10127;47.780;9.606;2023-04-25T05:17:17;9.60;99.90
19930;DHT22;10127;47.780;9.606;2023-04-25T05:19:43;10.60;99.90
19930;DHT22;10127;47.780;9.606;2023-04-25T05:22:09;10.80;99.90
19930;DHT22;10127;47.780;9.606;2023-04-25T05:24:41;10.50;99.90
19930;DHT22;10127;47.780;9.606;2023-04-25T05:27:06;10.30;99.90
19930;DHT22;10127;47.780;9.606;2023-04-25T05:29:32;10.20;99.90
19930;DHT22;10127;47.780;9.606;2023-04-25T05:31:57;10.00;99.90
19930;DHT22;10127;47.780;9.606;2023-04-25T05:34:23;10.00;99.90
19930;DHT22;10127;47.780;9.606;2023-04-25T05:36:48;10.20;99.90
19930;DHT22;10127;47.780;9.606;2023-04-25T05:39:16;10.40;99.90
19930;DHT22;10127;47.780;9.606;2023-04-25T05:41:42;10.40;99.90
19930;DHT22;10127;47.780;9.606;2023-04-25T05:44:08;10.50;99.90
19930;DHT22;10127;47.780;9.606;2023-04-25T05:46:34;10.60;99.90
19930;DHT22;10127;47.780;9.606;2023-04-25T05:48:59;10.30;99.90
19930;DHT22;10127;47.780;9.606;2023-04-25T05:51:25;10.10;99.90
19930;DHT22;10127;47.780;9.606;2023-04-25T05:53:51;9.90;99.90
19930;DHT22;10127;47.780;9.606;2023-04-25T05:56:16;9.90;99.90
19930;DHT22;10127;47.780;9.606;2023-04-25T05:58:42;9.80;99.90
19930;DHT22;10127;47.780;9.606;2023-04-25T06:01:08;9.70;99.90
19930;DHT22;10127;47.780;9.606;2023-04-25T06:03:34;9.80;99.90
19930;DHT22;10127;47.780;9.606;2023-04-25T06:05:59;10.00;99.90
19930;DHT22;10127;47.780;9.606;2023-04-25T06:08:25;10.10;99.90
19930;DHT22;10127;47.780;9.606;2023-04-25T06:10:51;10.10;99.90
19930;DHT22;10127;47.780;9.606;2023-04-25T06:13:16;10.10;99.90
19930;DHT22;10127;47.780;9.606;2023-04-25T06:15:42;10.00;99.90
19930;DHT22;10127;47.780;9.606;2023-04-25T06:18:08;10.00;99.90
19930;DHT22;10127;47.780;9.606;2023-04-25T06:20:33;10.00;99.90
19930;DHT22;10127;47.780;9.606;2023-04-25T06:22:59;10.00;99.90
19930;DHT22;10127;47.780;9.606;2023-04-25T06:25:24;10.00;99.90
19930;DHT22;10127;47.780;9.606;2023-04-25T06:27:50;10.00;99.90
19930;DHT22;10127;47.780;9.606;2023-04-25T06:30:16;10.20;99.90
19930;DHT22;10127;47.780;9.606;2023-04-25T06:32:43;10.30;99.90
19930;DHT22;10127;47.780;9.606;2023-04-25T06:35:09;10.20;99.90
19930;DHT22;10127;47.780;9.606;2023-04-25T06:37:35;10.40;99.90
19930;DHT22;10127;47.780;9.606;2023-04-25T06:40:01;10.40;99.90
19930;DHT22;10127;47.780;9.606;2023-04-25T06:42:27;10.50;99.90
19930;DHT22;10127;47.780;9.606;2023-04-25T06:44:53;10.60;99.90
19930;DHT22;10127;47.780;9.606;2023-04-25T06:47:18;10.70;99.90
19930;DHT22;10127;47.780;9.606;2023-04-25T06:49:44;10.70;99.90
19930;DHT22;10127;47.780;9.606;2023-04-25T06:52:09;10.90;99.90
19930;DHT22;10127;47.780;9.606;2023-04-25T06:54:36;11.10;99.90
19930;DHT22;10127;47.780;9.606;2023-04-25T06:57:01;11.20;99.90
19930;DHT22;10127;47.780;9.606;2023-04-25T06:59:27;11.30;99.90
19930;DHT22;10127;47.780;9.606;2023-04-25T07:01:52;11.30;99.90
19930;DHT22;10127;47.780;9.606;2023-04-25T07:04:18;11.40;99.90
19930;DHT22;10127;47.780;9.606;2023-04-25T07:06:44;11.50;99.90
19930;DHT22;10127;47.780;9.606;2023-04-25T07:09:10;11.60;99.90
19930;DHT22;10127;47.780;9.606;2023-04-25T07:11:36;11.90;99.90
19930;DHT22;10127;47.780;9.606;2023-04-25T07:14:02;12.00;99.90
19930;DHT22;10127;47.780;9.606;2023-04-25T07:16:27;12.20;99.90
19930;DHT22;10127;47.780;9.606;2023-04-25T07:18:53;12.20;99.90
19930;DHT22;10127;47.780;9.606;2023-04-25T07:21:18;12.00;99.90
19930;DHT22;10127;47.780;9.606;2023-04-25T07:23:44;12.00;99.90
19930;DHT22;10127;47.780;9.606;2023-04-25T07:26:10;12.10;99.90
19930;DHT22;10127;47.780;9.606;2023-04-25T07:28:35;12.20;99.90
19930;DHT22;10127;47.780;9.606;2023-04-25T07:31:01;12.40;99.90
19930;DHT22;10127;47.780;9.606;2023-04-25T07:33:27;12.70;99.90
19930;DHT22;10127;47.780;9.606;2023-04-25T07:35:53;12.90;99.90
19930;DHT22;10127;47.780;9.606;2023-04-25T07:38:18;13.00;99.90
19930;DHT22;10127;47.780;9.606;2023-04-25T07:40:44;13.00;99.90
19930;DHT22;10127;47.780;9.606;2023-04-25T07:43:09;12.90;99.90
19930;DHT22;10127;47.780;9.606;2023-04-25T07:45:37;13.10;99.90
19930;DHT22;10127;47.780;9.606;2023-04-25T07:48:03;13.20;99.90
19930;DHT22;10127;47.780;9.606;2023-04-25T07:50:28;13.10;99.90
19930;DHT22;10127;47.780;9.606;2023-04-25T07:52:54;12.60;99.90
19930;DHT22;10127;47.780;9.606;2023-04-25T07:55:19;12.50;99.90
19930;DHT22;10127;47.780;9.606;2023-04-25T07:57:45;12.40;99.90
19930;DHT22;10127;47.780;9.606;2023-04-25T08:00:11;12.20;99.90
19930;DHT22;10127;47.780;9.606;2023-04-25T08:02:38;12.10;99.90
19930;DHT22;10127;47.780;9.606;2023-04-25T08:05:03;12.00;99.90
19930;DHT22;10127;47.780;9.606;2023-04-25T08:07:29;11.90;99.90
19930;DHT22;10127;47.780;9.606;2023-04-25T08:09:55;11.90;99.90
19930;DHT22;10127;47.780;9.606;2023-04-25T08:12:20;12.20;99.90
19930;DHT22;10127;47.780;9.606;2023-04-25T08:14:46;12.00;99.90
19930;DHT22;10127;47.780;9.606;2023-04-25T08:17:11;11.20;99.90
19930;DHT22;10127;47.780;9.606;2023-04-25T08:19:37;10.90;99.90
19930;DHT22;10127;47.780;9.606;2023-04-25T08:22:03;10.70;99.90
19930;DHT22;10127;47.780;9.606;2023-04-25T08:24:28;10.80;99.90
19930;DHT22;10127;47.780;9.606;2023-04-25T08:26:54;10.80;99.90
19930;DHT22;10127;47.780;9.606;2023-04-25T08:29:20;10.70;99.90
19930;DHT22;10127;47.780;9.606;2023-04-25T08:31:45;10.20;99.90
19930;DHT22;10127;47.780;9.606;2023-04-25T08:34:11;9.80;99.90
19930;DHT22;10127;47.780;9.606;2023-04-25T08:36:37;9.40;99.90
19930;DHT22;10127;47.780;9.606;2023-04-25T08:39:02;9.00;99.90
19930;DHT22;10127;47.780;9.606;2023-04-25T08:41:28;8.90;99.90
19930;DHT22;10127;47.780;9.606;2023-04-25T08:43:56;8.70;99.90
19930;DHT22;10127;47.780;9.606;2023-04-25T08:46:23;8.60;99.90
19930;DHT22;10127;47.780;9.606;2023-04-25T08:48:49;8.80;99.90
19930;DHT22;10127;47.780;9.606;2023-04-25T08:51:22;8.70;99.90
19930;DHT22;10127;47.780;9.606;2023-04-25T08:53:51;8.80;99.90
19930;DHT22;10127;47.780;9.606;2023-04-25T08:56:17;8.90;99.90
19930;DHT22;10127;47.780;9.606;2023-04-25T08:58:43;8.70;99.90
19930;DHT22;10127;47.780;9.606;2023-04-25T09:01:11;8.70;99.90
19930;DHT22;10127;47.780;9.606;2023-04-25T09:03:36;8.60;99.90
19930;DHT22;10127;47.780;9.606;2023-04-25T09:06:10;8.50;99.90
19930;DHT22;10127;47.780;9.606;2023-04-25T09:08:37;8.60;99.90
19930;DHT22;10127;47.780;9.606;2023-04-25T09:11:02;8.60;99.90
19930;DHT22;10127;47.780;9.606;2023-04-25T09:13:28;8.70;99.90
19930;DHT22;10127;47.780;9.606;2023-04-25T09:15:56;8.90;99.90
19930;DHT22;10127;47.780;9.606;2023-04-25T09:18:32;9.10;99.90
19930;DHT22;10127;47.780;9.606;2023-04-25T09:21:09;9.20;99.90
19930;DHT22;10127;47.780;9.606;2023-04-25T09:23:48;9.30;99.90
19930;DHT22;10127;47.780;9.606;2023-04-25T09:26:17;9.40;99.90
19930;DHT22;10127;47.780;9.606;2023-04-25T09:28:43;9.50;99.90
19930;DHT22;10127;47.780;9.606;2023-04-25T09:31:12;9.30;99.90
19930;DHT22;10127;47.780;9.606;2023-04-25T09:33:37;9.30;99.90
19930;DHT22;10127;47.780;9.606;2023-04-25T09:36:08;9.30;99.90
19930;DHT22;10127;47.780;9.606;2023-04-25T09:38:46;9.20;99.90
19930;DHT22;10127;47.780;9.606;2023-04-25T09:41:12;9.30;99.90
19930;DHT22;10127;47.780;9.606;2023-04-25T09:43:38;9.00;99.90
19930;DHT22;10127;47.780;9.606;2023-04-25T09:46:11;9.00;99.90
19930;DHT22;10127;47.780;9.606;2023-04-25T09:48:37;9.20;99.90
19930;DHT22;10127;47.780;9.606;2023-04-25T09:53:28;9.70;99.90
19930;DHT22;10127;47.780;9.606;2023-04-25T09:55:55;10.00;99.90
19930;DHT22;10127;47.780;9.606;2023-04-25T09:58:24;10.00;99.90
19930;DHT22;10127;47.780;9.606;2023-04-25T10:00:51;9.90;99.90
19930;DHT22;10127;47.780;9.606;2023-04-25T10:03:17;10.00;99.90
19930;DHT22;10127;47.780;9.606;2023-04-25T10:05:45;10.10;99.90
19930;DHT22;10127;47.780;9.606;2023-04-25T10:08:12;10.00;99.90
19930;DHT22;10127;47.780;9.606;2023-04-25T10:10:39;10.10;99.90
19930;DHT22;10127;47.780;9.606;2023-04-25T10:13:05;10.10;99.90
19930;DHT22;10127;47.780;9.606;2023-04-25T10:15:34;10.10;99.90
19930;DHT22;10127;47.780;9.606;2023-04-25T10:18:01;10.20;99.90
19930;DHT22;10127;47.780;9.606;2023-04-25T10:20:28;10.40;99.90
19930;DHT22;10127;47.780;9.606;2023-04-25T10:22:55;10.30;99.90
19930;DHT22;10127;47.780;9.606;2023-04-25T10:25:23;10.30;99.90
19930;DHT22;10127;47.780;9.606;2023-04-25T10:27:53;10.40;99.90
19930;DHT22;10127;47.780;9.606;2023-04-25T10:30:19;10.50;99.90
19930;DHT22;10127;47.780;9.606;2023-04-25T10:32:45;10.90;99.90
19930;DHT22;10127;47.780;9.606;2023-04-25T10:35:16;11.00;99.90
19930;DHT22;10127;47.780;9.606;2023-04-25T10:37:58;11.00;99.90
19930;DHT22;10127;47.780;9.606;2023-04-25T10:40:24;11.20;99.90
19930;DHT22;10127;47.780;9.606;2023-04-25T10:42:54;11.60;99.90
19930;DHT22;10127;47.780;9.606;2023-04-25T10:45:20;11.50;99.90
19930;DHT22;10127;47.780;9.606;2023-04-25T10:47:46;11.60;99.90
19930;DHT22;10127;47.780;9.606;2023-04-25T10:50:14;11.30;99.90
19930;DHT22;10127;47.780;9.606;2023-04-25T10:52:44;11.70;99.90
19930;DHT22;10127;47.780;9.606;2023-04-25T10:55:10;12.40;99.90
19930;DHT22;10127;47.780;9.606;2023-04-25T10:57:42;12.10;99.90
19930;DHT22;10127;47.780;9.606;2023-04-25T11:02:58;11.70;99.90
19930;DHT22;10127;47.780;9.606;2023-04-25T11:05:33;11.90;99.90
19930;DHT22;10127;47.780;9.606;2023-04-25T11:07:59;12.10;99.90
19930;DHT22;10127;47.780;9.606;2023-04-25T11:10:29;11.90;99.90
19930;DHT22;10127;47.780;9.606;2023-04-25T11:12:56;12.10;99.90
19930;DHT22;10127;47.780;9.606;2023-04-25T11:15:22;12.30;99.90
19930;DHT22;10127;47.780;9.606;2023-04-25T11:17:47;12.70;99.90
19930;DHT22;10127;47.780;9.606;2023-04-25T11:20:13;12.60;99.90
19930;DHT22;10127;47.780;9.606;2023-04-25T11:22:41;12.40;99.90
19930;DHT22;10127;47.780;9.606;2023-04-25T11:25:11;12.30;99.90
19930;DHT22;10127;47.780;9.606;2023-04-25T11:27:53;12.30;99.90
19930;DHT22;10127;47.780;9.606;2023-04-25T11:30:20;12.60;99.90
19930;DHT22;10127;47.780;9.606;2023-04-25T11:32:47;12.70;99.90
19930;DHT22;10127;47.780;9.606;2023-04-25T11:35:13;12.80;99.90
19930;DHT22;10127;47.780;9.606;2023-04-25T11:37:39;12.70;99.90
19930;DHT22;10127;47.780;9.606;2023-04-25T11:40:06;12.80;99.90
19930;DHT22;10127;47.780;9.606;2023-04-25T11:42:32;12.70;99.90
19930;DHT22;10127;47.780;9.606;2023-04-25T11:44:59;12.80;99.90
19930;DHT22;10127;47.780;9.606;2023-04-25T11:47:30;12.30;99.90
19930;DHT22;10127;47.780;9.606;2023-04-25T11:49:55;12.00;99.90
19930;DHT22;10127;47.780;9.606;2023-04-25T11:52:22;12.00;99.90
19930;DHT22;10127;47.780;9.606;2023-04-25T11:54:48;12.40;99.90
19930;DHT22;10127;47.780;9.606;2023-04-25T11:57:13;12.90;99.90
19930;DHT22;10127;47.780;9.606;2023-04-25T11:59:39;13.20;99.90
19930;DHT22;10127;47.780;9.606;2023-04-25T12:02:05;13.10;99.90
19930;DHT22;10127;47.780;9.606;2023-04-25T12:04:32;12.60;99.90
19930;DHT22;10127;47.780;9.606;2023-04-25T12:06:57;12.40;99.90
19930;DHT22;10127;47.780;9.606;2023-04-25T12:09:33;12.20;99.90
19930;DHT22;10127;47.780;9.606;2023-04-25T12:12:00;12.30;99.90
19930;DHT22;10127;47.780;9.606;2023-04-25T12:14:30;12.60;99.90
19930;DHT22;10127;47.780;9.606;2023-04-25T12:16:58;12.60;99.90
19930;DHT22;10127;47.780;9.606;2023-04-25T12:19:25;12.50;99.90
19930;DHT22;10127;47.780;9.606;2023-04-25T12:21:51;12.40;99.90
19930;DHT22;10127;47.780;9.606;2023-04-25T12:24:22;12.10;99.90
19930;DHT22;10127;47.780;9.606;2023-04-25T12:27:03;11.60;99.90
19930;DHT22;10127;47.780;9.606;2023-04-25T12:29:30;11.70;99.90
19930;DHT22;10127;47.780;9.606;2023-04-25T12:31:57;11.70;99.90
19930;DHT22;10127;47.780;9.606;2023-04-25T12:34:23;11.90;99.90
19930;DHT22;10127;47.780;9.606;2023-04-25T12:36:49;12.50;99.90
19930;DHT22;10127;47.780;9.606;2023-04-25T12:39:22;12.20;99.90
19930;DHT22;10127;47.780;9.606;2023-04-25T12:41:49;12.00;99.90
19930;DHT22;10127;47.780;9.606;2023-04-25T12:44:15;11.80;99.90
19930;DHT22;10127;47.780;9.606;2023-04-25T12:46:41;11.40;99.90
19930;DHT22;10127;47.780;9.606;2023-04-25T12:49:07;11.40;99.90
19930;DHT22;10127;47.780;9.606;2023-04-25T12:51:34;10.90;99.90
19930;DHT22;10127;47.780;9.606;2023-04-25T12:54:00;10.80;99.90
19930;DHT22;10127;47.780;9.606;2023-04-25T12:56:26;10.80;99.90
19930;DHT22;10127;47.780;9.606;2023-04-25T12:58:53;11.20;99.90
19930;DHT22;10127;47.780;9.606;2023-04-25T13:01:19;11.40;99.90
19930;DHT22;10127;47.780;9.606;2023-04-25T13:03:45;11.50;99.90
19930;DHT22;10127;47.780;9.606;2023-04-25T13:06:11;11.40;99.90
19930;DHT22;10127;47.780;9.606;2023-04-25T13:08:38;11.40;99.90
19930;DHT22;10127;47.780;9.606;2023-04-25T13:11:05;11.40;99.90
19930;DHT22;10127;47.780;9.606;2023-04-25T13:13:31;11.50;99.90
19930;DHT22;10127;47.780;9.606;2023-04-25T13:15:57;11.10;99.90
19930;DHT22;10127;47.780;9.606;2023-04-25T13:18:23;11.40;99.90
19930;DHT22;10127;47.780;9.606;2023-04-25T13:20:52;12.20;99.90
19930;DHT22;10127;47.780;9.606;2023-04-25T13:23:18;12.40;99.90
19930;DHT22;10127;47.780;9.606;2023-04-25T13:25:43;12.60;99.90
19930;DHT22;10127;47.780;9.606;2023-04-25T13:28:09;12.30;99.90
19930;DHT22;10127;47.780;9.606;2023-04-25T13:30:34;12.10;99.90
19930;DHT22;10127;47.780;9.606;2023-04-25T13:33:00;11.70;99.90
19930;DHT22;10127;47.780;9.606;2023-04-25T13:35:31;11.40;99.90
19930;DHT22;10127;47.780;9.606;2023-04-25T13:37:57;11.30;99.90
19930;DHT22;10127;47.780;9.606;2023-04-25T13:40:23;11.30;99.90
19930;DHT22;10127;47.780;9.606;2023-04-25T13:42:48;11.80;99.90
19930;DHT22;10127;47.780;9.606;2023-04-25T13:45:14;12.30;99.90
19930;DHT22;10127;47.780;9.606;2023-04-25T13:47:40;12.40;99.90
19930;DHT22;10127;47.780;9.606;2023-04-25T13:50:07;12.50;99.90
19930;DHT22;10127;47.780;9.606;2023-04-25T13:52:33;12.90;99.90
19930;DHT22;10127;47.780;9.606;2023-04-25T13:54:59;13.10;99.90
19930;DHT22;10127;47.780;9.606;2023-04-25T13:57:24;13.10;99.90
19930;DHT22;10127;47.780;9.606;2023-04-25T13:59:51;12.70;99.90
19930;DHT22;10127;47.780;9.606;2023-04-25T14:02:18;12.40;99.90
19930;DHT22;10127;47.780;9.606;2023-04-25T14:04:43;12.10;99.90
19930;DHT22;10127;47.780;9.606;2023-04-25T14:07:09;12.30;99.90
19930;DHT22;10127;47.780;9.606;2023-04-25T14:09:36;13.00;99.90
19930;DHT22;10127;47.780;9.606;2023-04-25T14:12:02;13.60;99.90
19930;DHT22;10127;47.780;9.606;2023-04-25T14:14:27;13.50;99.90
19930;DHT22;10127;47.780;9.606;2023-04-25T14:16:53;12.80;99.90
19930;DHT22;10127;47.780;9.606;2023-04-25T14:19:20;12.50;99.90
19930;DHT22;10127;47.780;9.606;2023-04-25T14:21:46;12.90;99.90
19930;DHT22;10127;47.780;9.606;2023-04-25T14:24:12;13.70;99.90
19930;DHT22;10127;47.780;9.606;2023-04-25T14:26:38;14.10;99.90
19930;DHT22;10127;47.780;9.606;2023-04-25T14:29:04;14.30;99.90
19930;DHT22;10127;47.780;9.606;2023-04-25T14:31:31;13.80;99.90
19930;DHT22;10127;47.780;9.606;2023-04-25T14:33:56;13.70;99.90
19930;DHT22;10127;47.780;9.606;2023-04-25T14:36:22;13.80;99.90
19930;DHT22;10127;47.780;9.606;2023-04-25T14:38:47;13.60;99.90
19930;DHT22;10127;47.780;9.606;2023-04-25T14:41:13;13.10;99.90
19930;DHT22;10127;47.780;9.606;2023-04-25T14:43:39;13.00;99.90
19930;DHT22;10127;47.780;9.606;2023-04-25T14:46:07;13.60;99.90
19930;DHT22;10127;47.780;9.606;2023-04-25T14:48:33;13.80;99.90
19930;DHT22;10127;47.780;9.606;2023-04-25T14:50:59;13.90;99.90
19930;DHT22;10127;47.780;9.606;2023-04-25T14:53:28;13.60;99.90
19930;DHT22;10127;47.780;9.606;2023-04-25T14:55:53;13.80;99.90
19930;DHT22;10127;47.780;9.606;2023-04-25T14:58:19;14.10;99.90
19930;DHT22;10127;47.780;9.606;2023-04-25T15:00:46;14.20;99.90
19930;DHT22;10127;47.780;9.606;2023-04-25T15:03:18;14.30;99.90
19930;DHT22;10127;47.780;9.606;2023-04-25T15:05:43;14.10;99.90
19930;DHT22;10127;47.780;9.606;2023-04-25T15:08:09;13.40;99.90
19930;DHT22;10127;47.780;9.606;2023-04-25T15:10:35;13.00;99.90
19930;DHT22;10127;47.780;9.606;2023-04-25T15:13:01;13.10;99.90
19930;DHT22;10127;47.780;9.606;2023-04-25T15:15:27;13.20;99.90
19930;DHT22;10127;47.780;9.606;2023-04-25T15:17:53;13.40;99.90
19930;DHT22;10127;47.780;9.606;2023-04-25T15:20:22;13.40;99.90
19930;DHT22;10127;47.780;9.606;2023-04-25T15:22:47;13.40;99.90
19930;DHT22;10127;47.780;9.606;2023-04-25T15:25:14;13.80;99.90
19930;DHT22;10127;47.780;9.606;2023-04-25T15:27:41;14.30;99.90
19930;DHT22;10127;47.780;9.606;2023-04-25T15:30:10;14.20;99.90
19930;DHT22;10127;47.780;9.606;2023-04-25T15:32:41;14.00;99.90
19930;DHT22;10127;47.780;9.606;2023-04-25T15:35:07;13.80;99.90
19930;DHT22;10127;47.780;9.606;2023-04-25T15:37:34;13.60;99.90
19930;DHT22;10127;47.780;9.606;2023-04-25T15:40:13;13.20;99.90
19930;DHT22;10127;47.780;9.606;2023-04-25T15:42:44;13.00;99.90
19930;DHT22;10127;47.780;9.606;2023-04-25T15:45:13;13.00;99.90
19930;DHT22;10127;47.780;9.606;2023-04-25T15:47:39;12.90;99.90
19930;DHT22;10127;47.780;9.606;2023-04-25T15:50:07;12.90;99.90
19930;DHT22;10127;47.780;9.606;2023-04-25T15:52:33;12.80;99.90
19930;DHT22;10127;47.780;9.606;2023-04-25T15:54:58;12.60;99.90
19930;DHT22;10127;47.780;9.606;2023-04-25T15:57:24;12.40;99.90